createdAt,value
2022-08-08T00:01:06.677Z,6.50
2022-08-08T00:04:00.432Z,6.05
2022-08-08T00:06:49.843Z,6.70
2022-08-08T00:09:48.371Z,6.45
2022-08-08T00:12:29.872Z,6.72
2022-08-08T00:15:06.160Z,7.05
2022-08-08T00:17:58.488Z,7.00
2022-08-08T00:20:44.676Z,6.18
2022-08-08T00:23:28.296Z,7.72
2022-08-08T00:25:59.405Z,8.77
2022-08-08T00:28:36.924Z,7.40
2022-08-08T00:32:16.163Z,6.82
2022-08-08T00:35:04.082Z,7.57
2022-08-08T00:38:01.561Z,7.20
2022-08-08T00:41:10.328Z,6.30
2022-08-08T00:43:58.982Z,7.25
2022-08-08T00:46:56.804Z,7.22
2022-08-08T00:49:58.537Z,6.32
2022-08-08T00:52:51.565Z,7.68
2022-08-08T00:56:02.147Z,8.05
2022-08-08T00:59:06.564Z,7.30
2022-08-08T01:01:56.009Z,6.43
2022-08-08T01:04:50.457Z,7.65
2022-08-08T01:07:55.255Z,6.03
2022-08-08T01:11:02.037Z,6.97
2022-08-08T01:14:02.575Z,6.60
2022-08-08T01:17:07.501Z,6.85
2022-08-08T01:20:06.126Z,6.57
2022-08-08T01:24:02.539Z,6.93
2022-08-08T01:26:24.373Z,6.28
2022-08-08T01:29:16.985Z,5.95
2022-08-08T01:32:17.516Z,6.45
2022-08-08T01:35:40.751Z,6.97
2022-08-08T01:38:38.888Z,5.85
2022-08-08T01:41:26.573Z,6.10
2022-08-08T01:44:26.600Z,6.47
2022-08-08T01:48:03.686Z,6.05
2022-08-08T01:50:26.456Z,6.72
2022-08-08T01:55:15.981Z,7.78
2022-08-08T01:56:37.869Z,6.53
2022-08-08T01:59:22.007Z,7.13
2022-08-08T02:01:59.807Z,6.25
2022-08-08T02:04:43.453Z,6.47
2022-08-08T02:07:41.635Z,7.35
2022-08-08T02:10:37.278Z,6.53
2022-08-08T02:13:54.100Z,5.78
2022-08-08T02:16:57.942Z,6.10
2022-08-08T02:21:01.554Z,6.28
2022-08-08T02:23:31.876Z,6.05
2022-08-08T02:26:15.810Z,6.80
2022-08-08T02:29:18.801Z,5.90
2022-08-08T02:35:10.627Z,5.78
2022-08-08T02:37:57.032Z,5.85
2022-08-08T02:40:36.243Z,6.03
2022-08-08T02:44:37.668Z,6.78
2022-08-08T02:46:43.937Z,5.80
2022-08-08T02:49:51.274Z,5.75
2022-08-08T02:52:51.589Z,5.07
2022-08-08T02:55:25.215Z,5.38
2022-08-08T02:58:40.242Z,5.30
2022-08-08T03:01:47.493Z,6.50
2022-08-08T03:05:05.048Z,6.25
2022-08-08T03:07:58.342Z,5.30
2022-08-08T03:10:44.768Z,5.70
2022-08-08T03:15:57.289Z,6.05
2022-08-08T03:17:02.182Z,5.43
2022-08-08T03:19:51.091Z,6.22
2022-08-08T03:22:38.925Z,6.25
2022-08-08T03:25:09.187Z,5.95
2022-08-08T03:27:56.735Z,6.47
2022-08-08T03:30:25.399Z,6.72
2022-08-08T03:33:55.986Z,6.32
2022-08-08T03:35:59.571Z,6.13
2022-08-08T03:38:56.983Z,6.35
2022-08-08T03:42:12.563Z,6.07
2022-08-08T03:44:00.813Z,5.63
2022-08-08T03:46:35.474Z,6.18
2022-08-08T03:49:09.634Z,6.13
2022-08-08T03:51:57.177Z,6.15
2022-08-08T03:54:41.080Z,6.43
2022-08-08T03:58:32.185Z,6.07
2022-08-08T04:00:12.194Z,6.05
2022-08-08T04:03:00.398Z,6.78
2022-08-08T04:05:32.639Z,6.00
2022-08-08T04:08:06.991Z,6.00
2022-08-08T04:10:36.219Z,5.38
2022-08-08T04:13:08.196Z,6.28
2022-08-08T04:15:55.127Z,6.68
2022-08-08T04:18:32.229Z,6.05
2022-08-08T04:21:00.012Z,6.70
2022-08-08T04:24:05.627Z,7.70
2022-08-08T04:26:15.182Z,7.05
2022-08-08T04:28:42.813Z,7.60
2022-08-08T04:31:10.307Z,7.68
2022-08-08T04:34:00.610Z,13.27
2022-08-08T04:36:28.142Z,9.45
2022-08-08T04:39:48.075Z,9.05
2022-08-08T04:41:45.661Z,9.55
2022-08-08T04:44:13.120Z,10.18
2022-08-08T04:46:40.220Z,8.63
2022-08-08T04:49:11.428Z,7.55
2022-08-08T04:51:57.474Z,8.65
2022-08-08T04:54:39.572Z,9.23
2022-08-08T04:57:10.101Z,8.20
2022-08-08T04:59:41.878Z,7.55
2022-08-08T05:02:10.368Z,7.88
2022-08-08T05:04:42.040Z,8.05
2022-08-08T05:07:12.095Z,7.57
2022-08-08T05:09:42.829Z,7.15
2022-08-08T05:12:10.353Z,7.78
2022-08-08T05:14:49.196Z,6.75
2022-08-08T05:17:19.494Z,7.60
2022-08-08T05:20:11.160Z,7.55
2022-08-08T05:22:34.662Z,7.50
2022-08-08T05:25:01.982Z,8.18
2022-08-08T05:27:33.068Z,7.72
2022-08-08T05:30:03.299Z,7.20
2022-08-08T05:32:36.150Z,7.78
2022-08-08T05:35:09.678Z,7.10
2022-08-08T05:37:52.985Z,7.30
2022-08-08T05:40:28.006Z,6.70
2022-08-08T05:43:15.487Z,6.45
2022-08-08T05:46:08.066Z,6.75
2022-08-08T05:48:37.676Z,6.25
2022-08-08T05:51:13.240Z,6.70
2022-08-08T05:53:56.228Z,6.85
2022-08-08T05:56:37.502Z,6.00
2022-08-08T05:59:12.723Z,5.60
2022-08-08T06:01:56.798Z,5.20
2022-08-08T06:04:28.322Z,5.57
2022-08-08T06:07:00.377Z,5.30
2022-08-08T06:09:58.557Z,5.72
2022-08-08T06:12:30.342Z,5.32
2022-08-08T06:15:02.689Z,4.70
2022-08-08T06:17:50.863Z,4.68
2022-08-08T06:20:25.986Z,4.97
2022-08-08T06:22:53.774Z,4.93
2022-08-08T06:26:34.895Z,4.50
2022-08-08T06:28:16.038Z,4.25
2022-08-08T06:30:44.772Z,5.40
2022-08-08T06:33:15.135Z,4.90
2022-08-08T06:36:08.561Z,4.57
2022-08-08T06:38:39.272Z,4.55
2022-08-08T06:41:13.200Z,4.60
2022-08-08T06:43:47.531Z,3.78
2022-08-08T06:46:24.223Z,2.97
2022-08-08T06:48:57.740Z,2.85
2022-08-08T06:51:46.735Z,2.53
2022-08-08T06:54:14.463Z,1.90
2022-08-08T06:56:47.273Z,2.47
2022-08-08T06:59:19.117Z,2.80
2022-08-08T07:02:28.070Z,2.40
2022-08-08T07:05:00.551Z,2.13
2022-08-08T07:07:38.935Z,2.30
2022-08-08T07:10:12.661Z,1.90
2022-08-08T07:12:51.982Z,1.90
2022-08-08T07:16:03.480Z,2.20
2022-08-08T07:18:36.097Z,2.00
2022-08-08T07:21:18.586Z,2.05
2022-08-08T07:24:12.790Z,1.73
2022-08-08T07:26:40.828Z,1.75
2022-08-08T07:29:11.603Z,2.22
2022-08-08T07:31:49.064Z,2.03
2022-08-08T07:34:26.651Z,1.95
2022-08-08T07:37:01.411Z,2.55
2022-08-08T07:39:45.876Z,2.10
2022-08-08T07:42:33.021Z,2.33
2022-08-08T07:45:00.885Z,1.88
2022-08-08T07:47:38.624Z,2.38
2022-08-08T07:50:07.368Z,1.85
2022-08-08T07:52:43.960Z,2.25
2022-08-08T07:55:19.113Z,2.20
2022-08-08T07:58:06.840Z,2.03
2022-08-08T08:00:41.830Z,1.67
2022-08-08T08:03:23.628Z,1.75
2022-08-08T08:05:53.264Z,2.20
2022-08-08T08:08:27.687Z,1.50
2022-08-08T08:10:57.883Z,1.83
2022-08-08T08:13:42.670Z,2.55
2022-08-08T08:16:32.426Z,2.47
2022-08-08T08:19:12.859Z,2.10
2022-08-08T08:21:57.055Z,1.90
2022-08-08T08:24:31.941Z,2.25
2022-08-08T08:27:03.525Z,1.88
2022-08-08T08:29:31.675Z,1.75
2022-08-08T08:32:03.320Z,2.42
2022-08-08T08:34:33.872Z,1.42
2022-08-08T08:37:03.545Z,1.55
2022-08-08T08:39:39.275Z,1.77
2022-08-08T08:42:29.095Z,1.50
2022-08-08T08:45:21.281Z,1.92
2022-08-08T08:47:58.427Z,1.33
2022-08-08T08:50:32.692Z,0.93
2022-08-08T08:56:01.943Z,0.95
2022-08-08T08:58:46.941Z,0.75
2022-08-08T09:01:26.798Z,0.55
2022-08-08T09:04:00.822Z,0.80
2022-08-08T09:06:33.622Z,0.70
2022-08-08T09:09:07.120Z,1.10
2022-08-08T09:11:47.654Z,0.43
2022-08-08T09:14:26.545Z,0.77
2022-08-08T09:16:56.340Z,1.10
2022-08-08T09:21:57.824Z,0.77
2022-08-08T09:22:19.644Z,0.88
2022-08-08T09:24:58.643Z,0.65
2022-08-08T09:27:57.033Z,0.73
2022-08-08T09:30:17.777Z,1.08
2022-08-08T09:33:11.856Z,0.82
2022-08-08T09:35:48.853Z,0.70
2022-08-08T09:38:53.085Z,1.55
2022-08-08T09:41:54.821Z,0.88
2022-08-08T09:44:34.339Z,0.95
2022-08-08T09:48:02.407Z,1.10
2022-08-08T09:49:58.883Z,0.70
2022-08-08T09:53:05.632Z,0.90
2022-08-08T09:56:03.847Z,1.02
2022-08-08T09:58:26.322Z,1.08
2022-08-08T10:01:14.534Z,1.17
2022-08-08T10:03:57.339Z,1.38
2022-08-08T10:06:29.551Z,1.20
2022-08-08T10:08:57.745Z,1.63
2022-08-08T10:12:27.698Z,1.80
2022-08-08T10:14:28.277Z,1.50
2022-08-08T10:17:57.321Z,1.48
2022-08-08T10:20:03.873Z,1.48
2022-08-08T10:22:33.279Z,1.38
2022-08-08T10:25:15.906Z,1.42
2022-08-08T10:27:45.217Z,2.00
2022-08-08T10:30:57.014Z,1.33
2022-08-08T10:33:09.584Z,1.13
2022-08-08T10:36:08.923Z,1.25
2022-08-08T10:38:31.086Z,1.30
2022-08-08T10:41:05.734Z,1.38
2022-08-08T10:43:40.375Z,1.40
2022-08-08T10:46:30.401Z,1.55
2022-08-08T10:49:00.298Z,1.05
2022-08-08T10:51:40.806Z,1.60
2022-08-08T10:54:24.948Z,0.90
2022-08-08T10:57:03.936Z,1.02
2022-08-08T10:59:39.704Z,1.45
2022-08-08T11:02:09.069Z,1.45
2022-08-08T11:04:53.354Z,1.38
2022-08-08T11:08:30.983Z,1.25
2022-08-08T11:10:28.636Z,1.60
2022-08-08T11:13:29.896Z,1.38
2022-08-08T11:15:54.752Z,1.40
2022-08-08T11:18:30.332Z,0.93
2022-08-08T11:21:00.959Z,0.90
2022-08-08T11:23:36.595Z,0.80
2022-08-08T11:26:06.382Z,0.77
2022-08-08T11:28:38.715Z,1.15
2022-08-08T11:31:09.623Z,1.35
2022-08-08T11:33:53.152Z,0.80
2022-08-08T11:36:29.615Z,1.02
2022-08-08T11:38:57.617Z,0.80
2022-08-08T11:41:32.265Z,1.00
2022-08-08T11:44:00.450Z,0.75
2022-08-08T11:46:30.571Z,1.08
2022-08-08T11:49:07.531Z,0.50
2022-08-08T11:51:39.616Z,0.82
2022-08-08T11:54:27.353Z,0.55
2022-08-08T11:57:34.891Z,1.08
2022-08-08T12:00:07.477Z,0.85
2022-08-08T12:02:51.063Z,0.80
2022-08-08T12:05:19.059Z,0.90
2022-08-08T12:07:53.224Z,0.80
2022-08-08T12:10:22.940Z,1.15
2022-08-08T12:13:06.856Z,0.80
2022-08-08T12:18:21.702Z,0.93
2022-08-08T12:21:13.504Z,0.60
2022-08-08T12:23:58.301Z,0.80
2022-08-08T12:26:59.224Z,0.82
2022-08-08T12:29:40.489Z,0.57
2022-08-08T12:32:20.389Z,0.88
2022-08-08T12:35:13.215Z,1.05
2022-08-08T12:38:01.678Z,0.50
2022-08-08T12:40:37.860Z,0.47
2022-08-08T12:43:47.837Z,0.80
2022-08-08T12:46:26.038Z,0.63
2022-08-08T12:49:25.000Z,0.70
2022-08-08T12:51:59.347Z,0.60
2022-08-08T12:54:41.011Z,0.80
2022-08-08T12:57:24.193Z,0.82
2022-08-08T13:00:05.851Z,1.05
2022-08-08T13:02:42.245Z,0.90
2022-08-08T13:05:26.900Z,1.00
2022-08-08T13:08:16.767Z,0.60
2022-08-08T13:10:58.508Z,1.08
2022-08-08T13:13:36.745Z,0.80
2022-08-08T13:16:25.622Z,0.75
2022-08-08T13:19:01.609Z,0.73
2022-08-08T13:21:53.793Z,0.50
2022-08-08T13:24:42.567Z,0.47
2022-08-08T13:27:15.068Z,0.60
2022-08-08T13:30:04.532Z,0.32
2022-08-08T13:32:35.951Z,0.73
2022-08-08T13:35:11.551Z,0.30
2022-08-08T13:38:08.115Z,0.60
2022-08-08T13:40:41.045Z,0.57
2022-08-08T13:43:08.733Z,1.00
2022-08-08T13:45:36.924Z,0.63
2022-08-08T13:48:13.704Z,0.60
2022-08-08T13:50:53.844Z,0.60
2022-08-08T13:53:31.640Z,0.57
2022-08-08T13:56:05.705Z,0.75
2022-08-08T13:58:34.754Z,0.73
2022-08-08T14:01:42.272Z,0.70
2022-08-08T14:04:27.736Z,1.10
2022-08-08T14:07:04.586Z,0.60
2022-08-08T14:10:04.551Z,0.60
2022-08-08T14:12:31.692Z,0.80
2022-08-08T14:15:00.356Z,0.77
2022-08-08T14:17:57.765Z,0.95
2022-08-08T14:20:57.754Z,0.70
2022-08-08T14:24:03.538Z,0.70
2022-08-08T14:26:03.957Z,0.50
2022-08-08T14:28:39.579Z,0.60
2022-08-08T14:31:09.820Z,0.70
2022-08-08T14:33:37.344Z,0.70
2022-08-08T14:36:06.749Z,0.90
2022-08-08T14:38:52.910Z,0.57
2022-08-08T14:41:45.113Z,0.50
2022-08-08T14:44:19.562Z,0.50
2022-08-08T14:47:00.138Z,0.68
2022-08-08T14:49:37.787Z,0.60
2022-08-08T14:52:21.172Z,0.55
2022-08-08T14:54:49.324Z,0.80
2022-08-08T14:57:17.071Z,1.13
2022-08-08T14:59:51.439Z,0.40
2022-08-08T15:02:31.371Z,0.60
2022-08-08T15:05:08.271Z,0.80
2022-08-08T15:07:40.261Z,0.77
2022-08-08T15:10:10.101Z,0.40
2022-08-08T15:12:38.601Z,0.70
2022-08-08T15:15:09.443Z,0.50
2022-08-08T15:17:40.775Z,0.60
2022-08-08T15:20:13.904Z,0.32
2022-08-08T15:22:44.618Z,0.50
2022-08-08T15:25:17.308Z,0.70
2022-08-08T15:28:05.072Z,0.70
2022-08-08T15:30:45.704Z,0.50
2022-08-08T15:33:14.285Z,0.90
2022-08-08T15:35:48.851Z,0.63
2022-08-08T15:38:17.318Z,0.68
2022-08-08T15:40:46.312Z,0.50
2022-08-08T15:43:18.665Z,0.40
2022-08-08T15:46:02.536Z,0.43
2022-08-08T15:48:29.955Z,0.88
2022-08-08T15:51:01.259Z,0.65
2022-08-08T15:53:40.358Z,0.70
2022-08-08T15:56:19.945Z,0.43
2022-08-08T15:58:48.846Z,0.57
2022-08-08T16:01:17.327Z,1.00
2022-08-08T16:03:47.994Z,0.50
2022-08-08T16:06:28.213Z,0.50
2022-08-08T16:13:00.957Z,0.85
2022-08-08T16:13:09.906Z,0.85
2022-08-08T16:14:33.764Z,1.20
2022-08-08T16:17:02.173Z,0.55
2022-08-08T16:20:00.227Z,0.60
2022-08-08T16:22:30.552Z,1.00
2022-08-08T16:25:09.854Z,0.95
2022-08-08T16:27:38.947Z,0.80
2022-08-08T16:30:13.709Z,0.60
2022-08-08T16:32:42.261Z,0.70
2022-08-08T16:35:09.973Z,1.00
2022-08-08T16:37:40.368Z,1.00
2022-08-08T16:40:14.486Z,0.60
2022-08-08T16:42:51.652Z,0.70
2022-08-08T16:46:37.543Z,0.93
2022-08-08T16:48:09.558Z,0.75
2022-08-08T16:50:40.537Z,0.80
2022-08-08T16:55:19.498Z,0.93
2022-08-08T16:55:58.104Z,0.80
2022-08-08T16:58:32.633Z,0.43
2022-08-08T17:01:09.315Z,0.65
2022-08-08T17:03:59.327Z,0.82
2022-08-08T17:06:36.849Z,0.40
2022-08-08T17:09:14.874Z,0.80
2022-08-08T17:11:48.471Z,0.57
2022-08-08T17:14:27.098Z,0.50
2022-08-08T17:16:58.882Z,0.55
2022-08-08T17:19:29.667Z,0.45
2022-08-08T17:22:00.970Z,0.60
2022-08-08T17:24:30.824Z,0.82
2022-08-08T17:27:00.167Z,0.75
2022-08-08T17:29:28.090Z,0.80
2022-08-08T17:32:05.882Z,0.68
2022-08-08T17:34:59.952Z,0.65
2022-08-08T17:37:27.592Z,0.70
2022-08-08T17:40:06.310Z,1.05
2022-08-08T17:42:41.404Z,0.90
2022-08-08T17:45:22.220Z,1.38
2022-08-08T17:47:51.917Z,0.77
2022-08-08T17:50:23.688Z,0.60
2022-08-08T17:52:53.015Z,0.85
2022-08-08T17:56:05.260Z,0.75
2022-08-08T17:58:11.737Z,0.75
2022-08-08T18:00:41.206Z,0.82
2022-08-08T18:03:13.626Z,0.93
2022-08-08T18:05:48.999Z,1.17
2022-08-08T18:08:25.198Z,0.82
2022-08-08T18:11:15.517Z,0.70
2022-08-08T18:13:47.182Z,1.05
2022-08-08T18:16:17.193Z,1.20
2022-08-08T18:18:53.144Z,1.00
2022-08-08T18:21:59.312Z,1.00
2022-08-08T18:24:19.422Z,1.20
2022-08-08T18:26:53.857Z,0.80
2022-08-08T18:32:08.543Z,1.05
2022-08-08T18:34:37.868Z,0.65
2022-08-08T18:37:09.413Z,1.27
2022-08-08T18:39:41.197Z,1.25
2022-08-08T18:42:15.897Z,0.73
2022-08-08T18:44:55.894Z,0.95
2022-08-08T18:47:31.239Z,1.33
2022-08-08T18:50:02.869Z,0.90
2022-08-08T18:52:37.546Z,1.15
2022-08-08T18:55:10.618Z,1.13
2022-08-08T18:57:45.080Z,0.90
2022-08-08T19:00:19.862Z,0.95
2022-08-08T19:02:55.893Z,1.00
2022-08-08T19:05:32.323Z,1.00
2022-08-08T19:08:25.714Z,1.00
2022-08-08T19:11:01.594Z,0.98
2022-08-08T19:13:53.504Z,1.20
2022-08-08T19:16:19.085Z,1.00
2022-08-08T19:18:53.029Z,1.48
2022-08-08T19:21:30.907Z,1.13
2022-08-08T19:24:01.431Z,1.40
2022-08-08T19:26:37.351Z,1.20
2022-08-08T19:29:08.386Z,1.40
2022-08-08T19:31:38.467Z,1.10
2022-08-08T19:34:29.902Z,1.08
2022-08-08T19:36:59.312Z,1.30
2022-08-08T19:39:35.148Z,0.95
2022-08-08T19:42:09.048Z,1.10
2022-08-08T19:44:42.775Z,1.30
2022-08-08T19:47:14.210Z,1.20
2022-08-08T19:49:43.357Z,1.55
2022-08-08T19:52:35.139Z,1.73
2022-08-08T19:55:09.613Z,1.40
2022-08-08T19:57:43.120Z,2.00
2022-08-08T20:00:30.658Z,1.25
2022-08-08T20:03:14.524Z,1.45
2022-08-08T20:06:14.153Z,0.90
2022-08-08T20:08:37.290Z,1.63
2022-08-08T20:11:04.809Z,1.67
2022-08-08T20:14:33.055Z,1.70
2022-08-08T20:16:20.829Z,2.08
2022-08-08T20:18:53.922Z,1.60
2022-08-08T20:21:25.441Z,1.67
2022-08-08T20:23:58.598Z,1.45
2022-08-08T20:26:33.625Z,1.75
2022-08-08T20:29:07.007Z,1.20
2022-08-08T20:34:30.308Z,1.83
2022-08-08T20:37:03.034Z,1.98
2022-08-08T20:39:39.720Z,1.65
2022-08-08T20:42:20.328Z,1.85
2022-08-08T20:44:47.602Z,2.05
2022-08-08T20:47:23.325Z,1.70
2022-08-08T20:49:57.540Z,1.60
2022-08-08T20:52:28.747Z,1.83
2022-08-08T20:54:57.873Z,2.15
2022-08-08T20:57:27.731Z,1.60
2022-08-08T20:59:59.078Z,1.65
2022-08-08T21:02:29.046Z,1.52
2022-08-08T21:05:00.331Z,1.52
2022-08-08T21:07:31.163Z,1.52
2022-08-08T21:10:15.691Z,1.70
2022-08-08T21:12:44.471Z,1.73
2022-08-08T21:15:16.242Z,2.50
2022-08-08T21:18:00.859Z,1.98
2022-08-08T21:20:34.418Z,2.03
2022-08-08T21:25:36.308Z,2.30
2022-08-08T21:28:15.069Z,2.03
2022-08-08T21:30:45.341Z,1.70
2022-08-08T21:33:17.024Z,1.92
2022-08-08T21:36:17.423Z,1.80
2022-08-08T21:38:31.268Z,2.10
2022-08-08T21:40:58.350Z,2.13
2022-08-08T21:43:31.048Z,2.45
2022-08-08T21:48:08.621Z,2.50
2022-08-08T21:48:57.721Z,2.08
2022-08-08T21:54:31.634Z,1.90
2022-08-08T21:54:32.567Z,3.00
2022-08-08T21:57:05.042Z,2.50
2022-08-08T22:00:01.192Z,2.42
2022-08-08T22:02:23.448Z,2.25
2022-08-08T22:04:59.242Z,2.30
2022-08-08T22:07:40.163Z,2.25
2022-08-08T22:10:09.913Z,2.38
2022-08-08T22:12:46.038Z,2.28
2022-08-08T22:15:14.098Z,2.70
2022-08-08T22:17:45.842Z,2.65
2022-08-08T22:20:24.054Z,2.78
2022-08-08T22:22:57.496Z,1.92
2022-08-08T22:25:41.500Z,2.08
2022-08-08T22:29:14.317Z,2.20
2022-08-08T22:31:07.458Z,2.42
2022-08-08T22:34:13.606Z,2.53
2022-08-08T22:36:32.403Z,2.20
2022-08-08T22:39:01.958Z,2.33
2022-08-08T22:41:36.077Z,1.95
2022-08-08T22:44:06.936Z,2.70
2022-08-08T22:46:38.975Z,2.40
2022-08-08T22:49:07.024Z,2.70
2022-08-08T22:51:42.755Z,2.60
2022-08-08T22:54:32.153Z,3.15
2022-08-08T22:57:02.308Z,2.05
2022-08-08T22:59:59.077Z,2.35
2022-08-08T23:02:28.813Z,2.67
2022-08-08T23:04:57.879Z,2.35
2022-08-08T23:07:51.446Z,2.17
2022-08-08T23:10:19.707Z,2.75
2022-08-08T23:12:51.671Z,2.20
2022-08-08T23:16:39.330Z,2.92
2022-08-08T23:18:12.113Z,2.45
2022-08-08T23:20:43.752Z,2.72
2022-08-08T23:23:12.890Z,2.72
2022-08-08T23:25:48.162Z,2.75
2022-08-08T23:28:18.167Z,2.55
2022-08-08T23:30:47.413Z,2.38
2022-08-08T23:33:20.954Z,2.42
2022-08-08T23:36:10.200Z,2.50
2022-08-08T23:38:41.852Z,2.63
2022-08-08T23:41:22.891Z,2.85
2022-08-08T23:43:57.107Z,2.60
2022-08-08T23:49:03.342Z,2.33
2022-08-08T23:49:18.210Z,2.53
2022-08-08T23:52:04.555Z,2.78
2022-08-08T23:54:42.046Z,2.83
2022-08-08T23:57:27.129Z,2.50
